Time;durP1;ratioP1;P1;durP2;ratioP2;P2;SDS_P1;SDS_P2;PMS_P1;PMS_P2;Temp;Humidity;BMP_temperature;BMP_pressure;BME280_temperature;BME280_humidity;BME280_pressure;Samples;Min_cycle;Max_cycle;Signal;HPM_P1;HPM_P2
2023/03/18 00:02:23;;;;;;;0.30;0.10;;;17.60;68.90;;;;;;5005441;28;20042;-79
2023/03/18 00:04:50;;;;;;;0.20;0.20;;;17.60;69.00;;;;;;5007395;28;20073;-79
2023/03/18 00:07:15;;;;;;;0.20;0.20;;;17.50;68.90;;;;;;5006173;28;20041;-78
2023/03/18 00:09:41;;;;;;;0.25;0.20;;;17.50;68.90;;;;;;5023505;28;20171;-78
2023/03/18 00:12:07;;;;;;;0.63;0.30;;;17.50;68.90;;;;;;5006231;28;20085;-78
2023/03/18 00:14:34;;;;;;;0.30;0.30;;;17.50;68.90;;;;;;5008093;28;20141;-79
2023/03/18 00:17:00;;;;;;;0.32;0.28;;;17.50;69.00;;;;;;5003390;28;20104;-77
2023/03/18 00:19:26;;;;;;;0.40;0.30;;;17.50;68.90;;;;;;5007536;28;20037;-78
2023/03/18 00:21:51;;;;;;;0.40;0.25;;;17.50;69.00;;;;;;5008860;28;20066;-79
2023/03/18 00:24:17;;;;;;;0.17;0.17;;;17.50;68.90;;;;;;5004326;28;20517;-78
2023/03/18 00:26:43;;;;;;;0.20;0.20;;;17.50;69.00;;;;;;5007704;28;20054;-79
2023/03/18 00:29:08;;;;;;;0.20;0.10;;;17.50;69.00;;;;;;5005566;28;20038;-78
2023/03/18 00:31:34;;;;;;;0.20;0.20;;;17.50;69.00;;;;;;5004245;28;20050;-79
2023/03/18 00:34:00;;;;;;;0.10;0.10;;;17.50;69.00;;;;;;5006938;28;20452;-77
2023/03/18 00:36:26;;;;;;;0.30;0.20;;;17.50;69.00;;;;;;5007052;28;20525;-78
2023/03/18 00:38:56;;;;;;;0.10;0.10;;;17.50;69.00;;;;;;5003548;28;20048;-79
2023/03/18 00:41:24;;;;;;;0.60;0.22;;;17.40;69.00;;;;;;5006751;28;20054;-79
2023/03/18 00:43:53;;;;;;;0.40;0.20;;;17.50;69.00;;;;;;5004799;28;20040;-79
2023/03/18 00:46:23;;;;;;;0.30;0.20;;;17.50;69.00;;;;;;5005879;28;20042;-78
2023/03/18 00:48:49;;;;;;;0.70;0.13;;;17.50;69.00;;;;;;5007810;28;20498;-79
2023/03/18 00:51:16;;;;;;;0.30;0.20;;;17.50;69.00;;;;;;5005413;28;20527;-78
2023/03/18 00:53:46;;;;;;;0.28;0.28;;;17.50;69.00;;;;;;5006118;28;20103;-79
2023/03/18 00:56:12;;;;;;;0.40;0.40;;;17.50;69.00;;;;;;5005858;28;20521;-78
2023/03/18 00:58:38;;;;;;;0.52;0.35;;;17.40;69.00;;;;;;5003899;28;20665;-79
2023/03/18 01:01:04;;;;;;;0.60;0.30;;;17.40;69.00;;;;;;5006824;28;20045;-78
2023/03/18 01:03:30;;;;;;;0.20;0.20;;;17.50;69.00;;;;;;5004987;28;20065;-79
2023/03/18 01:05:56;;;;;;;0.25;0.25;;;17.40;69.00;;;;;;5005786;28;20076;-79
2023/03/18 01:08:22;;;;;;;0.10;0.10;;;17.40;69.00;;;;;;5004067;28;21094;-79
2023/03/18 01:10:48;;;;;;;0.10;0.10;;;17.40;69.00;;;;;;5006202;28;20511;-79
2023/03/18 01:13:14;;;;;;;0.60;0.20;;;17.40;69.10;;;;;;5006842;28;20048;-78
2023/03/18 01:15:41;;;;;;;0.10;0.10;;;17.50;69.10;;;;;;5007697;28;20338;-79
2023/03/18 01:18:07;;;;;;;0.30;0.20;;;17.40;68.90;;;;;;5020203;28;20108;-79
2023/03/18 01:20:33;;;;;;;0.25;0.25;;;17.50;69.00;;;;;;5002498;28;20050;-78
2023/03/18 01:22:59;;;;;;;0.20;0.20;;;17.40;69.00;;;;;;5002012;28;20100;-79
2023/03/18 01:25:26;;;;;;;0.38;0.10;;;17.40;68.90;;;;;;5005860;28;20052;-78
2023/03/18 01:27:52;;;;;;;0.17;0.17;;;17.40;69.00;;;;;;5005272;28;20088;-79
2023/03/18 01:30:18;;;;;;;0.38;0.28;;;17.40;68.80;;;;;;5004283;28;20041;-79
2023/03/18 01:32:44;;;;;;;0.40;0.30;;;17.40;68.70;;;;;;5005209;28;20042;-79
2023/03/18 01:35:11;;;;;;;0.40;0.40;;;17.50;68.50;;;;;;5004451;28;20061;-78
2023/03/18 01:37:36;;;;;;;0.30;0.25;;;17.50;68.70;;;;;;5002715;28;20056;-79
2023/03/18 01:40:02;;;;;;;0.47;0.20;;;17.40;68.70;;;;;;5003490;28;20419;-78
2023/03/18 01:42:28;;;;;;;0.30;0.20;;;17.40;68.80;;;;;;5005020;28;20056;-78
2023/03/18 01:45:30;;;;;;;0.20;0.10;;;17.40;68.80;;;;;;5006279;28;20034;-79
2023/03/18 01:47:57;;;;;;;0.20;0.20;;;17.40;69.10;;;;;;4977481;28;20452;-79
2023/03/18 01:50:25;;;;;;;0.20;0.20;;;17.40;69.10;;;;;;4957959;28;20050;-79
2023/03/18 01:52:53;;;;;;;0.10;0.10;;;17.40;69.20;;;;;;4962762;28;20038;-79
2023/03/18 01:55:21;;;;;;;0.13;0.10;;;17.40;69.20;;;;;;4973555;28;20046;-79
2023/03/18 01:57:47;;;;;;;0.20;0.20;;;17.40;69.20;;;;;;4946682;28;20053;-79
2023/03/18 02:00:15;;;;;;;0.80;0.20;;;17.40;69.10;;;;;;4982091;28;20120;-79
2023/03/18 02:02:42;;;;;;;0.20;0.20;;;17.40;69.00;;;;;;4979031;28;20440;-79
2023/03/18 02:05:10;;;;;;;0.20;0.20;;;17.40;68.80;;;;;;4960264;28;20102;-78
2023/03/18 02:07:36;;;;;;;0.10;0.10;;;17.40;69.00;;;;;;4966088;28;20061;-79
2023/03/18 02:10:09;;;;;;;0.25;0.20;;;17.40;69.10;;;;;;4979341;28;20043;-79
2023/03/18 02:12:37;;;;;;;0.20;0.20;;;17.40;69.00;;;;;;4979623;28;20034;-79
2023/03/18 02:15:07;;;;;;;0.10;0.10;;;17.40;69.00;;;;;;4941173;28;20440;-79
2023/03/18 02:17:40;;;;;;;0.10;0.10;;;17.40;69.00;;;;;;4976332;28;20101;-79
2023/03/18 02:20:24;;;;;;;0.40;0.40;;;17.40;68.90;;;;;;4957121;28;20038;-77
2023/03/18 02:22:55;;;;;;;0.20;0.10;;;17.40;68.90;;;;;;4984165;28;20045;-79
2023/03/18 02:25:38;;;;;;;0.38;0.20;;;17.40;69.00;;;;;;5003575;28;20069;-78
2023/03/18 02:28:07;;;;;;;0.25;0.13;;;17.40;69.00;;;;;;5004825;28;20069;-78
2023/03/18 02:30:39;;;;;;;0.20;0.10;;;17.40;68.80;;;;;;4987398;28;20110;-79
2023/03/18 02:33:05;;;;;;;0.22;0.10;;;17.40;68.90;;;;;;4988512;28;20092;-79
2023/03/18 02:35:31;;;;;;;0.20;0.20;;;17.40;68.80;;;;;;4997220;28;20748;-78
2023/03/18 02:37:56;;;;;;;0.32;0.10;;;17.40;68.50;;;;;;5004968;28;20042;-79
2023/03/18 02:40:31;;;;;;;0.30;0.10;;;17.40;68.70;;;;;;5004061;28;20515;-79
2023/03/18 02:43:08;;;;;;;0.30;0.20;;;17.40;68.70;;;;;;5009053;28;20054;-79
2023/03/18 02:45:48;;;;;;;0.10;0.10;;;17.40;68.80;;;;;;4989270;28;20180;-79
2023/03/18 02:48:16;;;;;;;0.47;0.20;;;17.40;68.80;;;;;;4989313;28;20053;-78
2023/03/18 02:50:42;;;;;;;0.10;0.10;;;17.40;68.90;;;;;;4991255;28;20502;-79
2023/03/18 02:53:10;;;;;;;0.20;0.10;;;17.40;68.90;;;;;;5007958;28;20042;-77
2023/03/18 02:55:35;;;;;;;0.10;0.10;;;17.40;69.70;;;;;;5007479;28;20518;-77
2023/03/18 02:58:01;;;;;;;0.10;0.10;;;17.40;68.80;;;;;;5010124;28;20038;-78
2023/03/18 03:00:26;;;;;;;0.77;0.30;;;17.30;68.80;;;;;;5007032;28;20380;-78
2023/03/18 03:02:52;;;;;;;0.10;0.10;;;17.40;68.80;;;;;;5007127;28;20049;-78
2023/03/18 03:05:18;;;;;;;0.20;0.20;;;17.30;68.90;;;;;;5006914;28;20425;-77
2023/03/18 03:07:43;;;;;;;0.30;0.20;;;17.30;69.00;;;;;;5006398;28;20484;-77
2023/03/18 03:10:10;;;;;;;0.10;0.10;;;17.30;68.90;;;;;;5008863;28;20060;-77
2023/03/18 03:12:36;;;;;;;0.30;0.00;;;17.30;69.00;;;;;;5009927;28;20046;-77
2023/03/18 03:15:04;;;;;;;0.10;0.10;;;17.30;68.90;;;;;;5007243;28;20042;-78
2023/03/18 03:17:29;;;;;;;0.10;0.10;;;17.30;69.00;;;;;;5004179;28;20049;-78
2023/03/18 03:19:55;;;;;;;0.30;0.10;;;17.30;69.00;;;;;;5009464;28;20430;-77
2023/03/18 03:22:20;;;;;;;0.10;0.10;;;17.30;69.00;;;;;;5008454;28;20046;-77
2023/03/18 03:24:46;;;;;;;0.13;0.10;;;17.30;68.90;;;;;;5009475;28;20061;-77
2023/03/18 03:27:12;;;;;;;0.28;0.10;;;17.30;69.00;;;;;;5007800;28;20042;-77
2023/03/18 03:29:38;;;;;;;0.63;0.10;;;17.40;69.00;;;;;;5007789;28;20052;-78
2023/03/18 03:32:04;;;;;;;0.20;0.10;;;17.30;69.00;;;;;;5005598;28;20038;-77
2023/03/18 03:34:29;;;;;;;0.13;0.13;;;17.30;69.00;;;;;;5005490;28;20141;-78
2023/03/18 03:36:55;;;;;;;0.20;0.10;;;17.40;69.20;;;;;;5008321;28;20151;-77
2023/03/18 03:39:21;;;;;;;0.10;0.10;;;17.30;69.00;;;;;;5008154;28;20036;-78
2023/03/18 03:41:47;;;;;;;0.20;0.15;;;17.30;69.00;;;;;;5005100;28;20049;-77
2023/03/18 03:44:12;;;;;;;0.30;0.10;;;17.30;69.00;;;;;;5006962;28;20050;-77
2023/03/18 03:46:39;;;;;;;0.10;0.10;;;17.30;68.90;;;;;;5007630;28;20048;-78
2023/03/18 03:49:05;;;;;;;0.15;0.15;;;17.30;69.00;;;;;;5009432;28;20550;-77
2023/03/18 03:51:31;;;;;;;0.30;0.10;;;17.30;69.00;;;;;;5007623;28;20030;-78
2023/03/18 03:53:56;;;;;;;0.20;0.10;;;17.30;69.00;;;;;;5006680;28;20038;-78
2023/03/18 03:56:22;;;;;;;0.10;0.10;;;17.30;68.90;;;;;;5004560;28;20041;-78
2023/03/18 03:58:48;;;;;;;0.10;0.10;;;17.30;68.70;;;;;;5006935;28;20030;-78
2023/03/18 04:01:13;;;;;;;0.10;0.10;;;17.30;68.80;;;;;;5008722;28;20034;-77
2023/03/18 04:03:39;;;;;;;0.10;0.10;;;17.30;68.90;;;;;;5037365;28;20112;-78
2023/03/18 04:06:05;;;;;;;0.22;0.22;;;17.30;68.90;;;;;;5007423;28;20037;-78
2023/03/18 04:08:31;;;;;;;0.45;0.20;;;17.30;68.90;;;;;;5006580;28;20108;-77
2023/03/18 04:10:57;;;;;;;0.88;0.20;;;17.30;69.00;;;;;;5008241;28;20041;-78
2023/03/18 04:13:23;;;;;;;0.10;0.10;;;17.30;69.10;;;;;;5006129;28;20038;-78
2023/03/18 04:15:48;;;;;;;0.20;0.20;;;17.30;69.10;;;;;;5008915;28;20045;-77
2023/03/18 04:18:15;;;;;;;0.40;0.20;;;17.30;69.10;;;;;;5004522;28;20411;-77
2023/03/18 04:20:41;;;;;;;0.22;0.20;;;17.20;69.00;;;;;;5039280;28;20045;-77
2023/03/18 04:23:08;;;;;;;0.35;0.28;;;17.20;69.00;;;;;;5006542;28;20038;-77
2023/03/18 04:25:34;;;;;;;0.40;0.20;;;17.30;69.10;;;;;;5005785;28;20196;-77
2023/03/18 04:27:59;;;;;;;0.55;0.25;;;17.30;69.10;;;;;;5008704;28;20073;-77
2023/03/18 04:30:26;;;;;;;0.28;0.25;;;17.20;69.10;;;;;;5005990;28;20680;-77
2023/03/18 04:32:51;;;;;;;0.20;0.20;;;17.20;69.20;;;;;;5007232;28;20034;-77
2023/03/18 04:35:17;;;;;;;0.13;0.13;;;17.20;69.10;;;;;;4999864;28;20025;-77
2023/03/18 04:37:43;;;;;;;0.20;0.10;;;17.20;69.90;;;;;;5005835;28;20450;-77
2023/03/18 04:40:10;;;;;;;0.25;0.20;;;17.20;69.00;;;;;;5009134;28;20618;-77
2023/03/18 04:42:36;;;;;;;0.10;0.10;;;17.30;69.20;;;;;;5005777;28;20066;-77
2023/03/18 04:45:04;;;;;;;0.08;0.08;;;17.20;69.90;;;;;;5005901;28;20026;-78
2023/03/18 04:47:31;;;;;;;0.40;0.20;;;17.20;69.10;;;;;;5006069;28;20516;-77
2023/03/18 04:49:56;;;;;;;0.20;0.10;;;17.20;69.20;;;;;;5006856;28;20057;-77
2023/03/18 04:52:23;;;;;;;0.08;0.08;;;17.20;69.20;;;;;;5005466;28;20458;-77
2023/03/18 04:54:49;;;;;;;0.10;0.05;;;17.30;69.20;;;;;;5004168;28;20034;-78
2023/03/18 04:57:15;;;;;;;0.20;0.20;;;17.20;69.30;;;;;;5006140;28;20099;-78
2023/03/18 04:59:41;;;;;;;0.40;0.20;;;17.20;69.20;;;;;;5002582;28;20437;-78
2023/03/18 05:02:07;;;;;;;0.15;0.10;;;17.20;69.30;;;;;;5006147;28;20030;-78
2023/03/18 05:04:33;;;;;;;0.10;0.10;;;17.20;69.20;;;;;;5003219;28;20038;-78
2023/03/18 05:06:59;;;;;;;0.05;0.05;;;17.20;69.20;;;;;;5004927;28;20506;-77
2023/03/18 05:09:24;;;;;;;0.20;0.20;;;17.20;69.20;;;;;;5004946;28;20443;-77
2023/03/18 05:11:50;;;;;;;0.30;0.30;;;17.20;69.20;;;;;;5006831;28;20500;-78
2023/03/18 05:14:15;;;;;;;0.28;0.22;;;17.30;69.30;;;;;;5007024;28;20037;-78
2023/03/18 05:16:41;;;;;;;0.38;0.30;;;17.20;69.00;;;;;;5005229;28;20045;-78
2023/03/18 05:19:08;;;;;;;0.30;0.17;;;17.20;69.20;;;;;;5020292;28;20076;-78
2023/03/18 05:21:35;;;;;;;0.20;0.13;;;17.20;69.00;;;;;;5003098;28;20042;-78
2023/03/18 05:24:00;;;;;;;0.25;0.10;;;17.20;69.00;;;;;;5006502;28;20415;-78
2023/03/18 05:26:26;;;;;;;0.93;0.20;;;17.20;69.20;;;;;;5006720;28;20495;-77
2023/03/18 05:28:52;;;;;;;0.15;0.10;;;17.20;69.10;;;;;;5004249;28;20053;-78
2023/03/18 05:31:18;;;;;;;0.28;0.28;;;17.20;69.20;;;;;;5005862;28;20054;-77
2023/03/18 05:33:44;;;;;;;0.35;0.20;;;17.20;69.30;;;;;;5005664;28;20060;-77
2023/03/18 05:36:09;;;;;;;0.20;0.20;;;17.20;69.40;;;;;;5004784;28;20052;-77
2023/03/18 05:38:35;;;;;;;0.20;0.20;;;17.20;69.40;;;;;;5005031;28;20093;-77
2023/03/18 05:41:00;;;;;;;0.20;0.17;;;17.20;69.20;;;;;;5005944;28;20107;-77
2023/03/18 05:43:27;;;;;;;0.20;0.10;;;17.20;69.30;;;;;;5004606;28;20049;-77
2023/03/18 05:45:53;;;;;;;0.13;0.13;;;17.20;69.40;;;;;;5006822;28;20439;-78
2023/03/18 05:48:18;;;;;;;0.38;0.20;;;17.20;69.10;;;;;;5005864;28;20041;-77
2023/03/18 05:50:44;;;;;;;0.25;0.13;;;17.20;69.20;;;;;;5004744;28;20042;-78
2023/03/18 05:53:10;;;;;;;1.55;0.30;;;17.20;69.40;;;;;;5006409;28;20049;-77
2023/03/18 05:55:37;;;;;;;0.15;0.15;;;17.20;69.40;;;;;;5004681;28;20057;-78
2023/03/18 05:58:02;;;;;;;0.10;0.10;;;17.20;70.20;;;;;;5007327;28;20038;-78
2023/03/18 06:00:28;;;;;;;0.43;0.20;;;17.20;69.40;;;;;;5003353;28;20053;-78
2023/03/18 06:02:55;;;;;;;0.20;0.20;;;17.20;69.40;;;;;;4988120;28;20038;-78
2023/03/18 06:05:21;;;;;;;0.15;0.10;;;17.20;69.30;;;;;;5001744;28;20053;-77
2023/03/18 06:07:48;;;;;;;0.40;0.28;;;17.20;69.40;;;;;;5003613;28;20054;-78
2023/03/18 06:10:13;;;;;;;0.20;0.20;;;17.20;69.40;;;;;;5007467;28;20046;-78
2023/03/18 06:12:40;;;;;;;1.45;0.30;;;17.20;69.40;;;;;;5003688;28;20048;-77
2023/03/18 06:15:06;;;;;;;0.20;0.20;;;17.20;69.20;;;;;;5006446;28;20046;-78
2023/03/18 06:17:32;;;;;;;0.35;0.25;;;17.20;69.20;;;;;;5007362;28;20030;-79
2023/03/18 06:19:58;;;;;;;0.70;0.20;;;17.30;68.90;;;;;;5009349;28;20045;-78
2023/03/18 06:22:24;;;;;;;0.30;0.30;;;17.40;68.90;;;;;;5009527;28;20565;-81
2023/03/18 06:24:50;;;;;;;0.20;0.15;;;17.30;69.00;;;;;;5011028;28;20074;-80
2023/03/18 06:27:16;;;;;;;0.32;0.30;;;17.30;69.30;;;;;;5008327;28;20065;-81
2023/03/18 06:29:42;;;;;;;0.20;0.15;;;17.30;68.90;;;;;;5007555;28;20481;-81
2023/03/18 06:32:08;;;;;;;0.30;0.30;;;17.20;68.90;;;;;;5006410;28;20167;-80
2023/03/18 06:34:35;;;;;;;0.20;0.20;;;17.20;69.30;;;;;;5005841;28;20056;-80
2023/03/18 06:37:01;;;;;;;0.30;0.30;;;17.40;69.40;;;;;;5009288;28;20115;-80
2023/03/18 06:39:27;;;;;;;0.20;0.10;;;17.30;68.90;;;;;;5007210;28;20046;-79
2023/03/18 06:41:53;;;;;;;1.25;0.40;;;17.30;68.80;;;;;;5008976;28;20088;-80
2023/03/18 06:44:22;;;;;;;0.10;0.10;;;17.20;69.00;;;;;;5008810;28;20057;-80
2023/03/18 06:46:48;;;;;;;0.30;0.20;;;17.20;69.20;;;;;;5008533;28;20041;-80
2023/03/18 06:49:14;;;;;;;0.30;0.20;;;17.20;69.70;;;;;;5006935;28;20045;-80
2023/03/18 06:51:41;;;;;;;1.45;0.30;;;17.20;69.40;;;;;;5009352;28;20237;-79
2023/03/18 06:54:06;;;;;;;2.08;0.20;;;17.20;69.70;;;;;;5008130;28;20106;-80
2023/03/18 06:56:40;;;;;;;0.30;0.10;;;17.20;69.80;;;;;;5007273;28;20547;-80
2023/03/18 06:59:06;;;;;;;0.20;0.20;;;17.20;69.60;;;;;;5007746;28;20669;-80
2023/03/18 07:01:32;;;;;;;0.20;0.13;;;17.20;69.50;;;;;;5038785;28;20112;-80
2023/03/18 07:03:59;;;;;;;0.50;0.30;;;17.20;69.60;;;;;;5042273;28;20503;-80
2023/03/18 07:06:29;;;;;;;0.28;0.17;;;17.20;69.70;;;;;;5007993;28;20042;-79
2023/03/18 07:08:55;;;;;;;0.20;0.13;;;17.20;70.50;;;;;;5022948;28;20136;-80
2023/03/18 07:11:20;;;;;;;0.30;0.20;;;17.20;69.50;;;;;;5005682;28;20120;-80
2023/03/18 07:13:46;;;;;;;0.30;0.20;;;17.20;69.50;;;;;;5006928;28;20523;-80
2023/03/18 07:16:12;;;;;;;0.38;0.30;;;17.20;69.40;;;;;;5007954;28;20128;-80
2023/03/18 07:18:37;;;;;;;0.15;0.10;;;17.20;69.40;;;;;;5022014;28;20431;-80
2023/03/18 07:21:04;;;;;;;0.10;0.10;;;17.20;69.40;;;;;;5004769;28;20112;-80
2023/03/18 07:23:29;;;;;;;0.20;0.10;;;17.20;69.40;;;;;;5002729;28;20042;-79
2023/03/18 07:25:55;;;;;;;0.60;0.25;;;17.20;69.50;;;;;;5007277;28;20037;-80
2023/03/18 07:28:20;;;;;;;0.57;0.20;;;17.20;69.40;;;;;;5006482;28;20578;-80
2023/03/18 07:30:46;;;;;;;0.28;0.20;;;17.20;69.40;;;;;;5007570;28;20040;-80
2023/03/18 07:33:12;;;;;;;0.20;0.20;;;17.10;69.30;;;;;;5006639;28;20046;-80
2023/03/18 07:35:40;;;;;;;0.10;0.10;;;17.10;69.30;;;;;;5005581;28;20046;-80
2023/03/18 07:38:09;;;;;;;0.52;0.43;;;17.10;69.30;;;;;;5007345;28;20042;-80
2023/03/18 07:40:35;;;;;;;0.10;0.10;;;17.10;69.30;;;;;;5005897;28;20076;-79
2023/03/18 07:43:00;;;;;;;0.55;0.10;;;17.10;69.30;;;;;;5007345;28;20056;-80
2023/03/18 07:45:27;;;;;;;0.20;0.10;;;17.10;69.30;;;;;;5005721;28;20038;-79
2023/03/18 07:47:53;;;;;;;0.43;0.20;;;17.10;69.30;;;;;;5007034;28;20057;-80
2023/03/18 07:50:18;;;;;;;0.30;0.13;;;17.10;69.30;;;;;;5007111;28;20545;-80
2023/03/18 07:52:44;;;;;;;0.43;0.30;;;17.10;69.20;;;;;;5006151;28;20467;-80
2023/03/18 07:55:10;;;;;;;0.20;0.10;;;17.20;69.40;;;;;;5008538;28;20041;-80
2023/03/18 07:57:36;;;;;;;0.60;0.30;;;17.10;69.20;;;;;;5006317;28;20123;-80
2023/03/18 08:00:04;;;;;;;0.20;0.20;;;17.10;69.30;;;;;;5006696;28;20042;-80
2023/03/18 08:02:30;;;;;;;0.10;0.10;;;17.20;69.30;;;;;;5006206;28;20411;-79
2023/03/18 08:04:56;;;;;;;0.25;0.00;;;17.10;69.30;;;;;;5005973;28;20054;-79
2023/03/18 08:07:23;;;;;;;0.10;0.00;;;17.10;69.20;;;;;;5007296;28;20061;-80
2023/03/18 08:09:49;;;;;;;0.15;0.10;;;17.10;69.30;;;;;;4956294;28;1250067;-79
2023/03/18 08:12:15;;;;;;;0.20;0.00;;;17.20;69.30;;;;;;5005837;28;20141;-80
2023/03/18 08:14:41;;;;;;;0.13;0.13;;;17.10;69.30;;;;;;5006276;28;20081;-80
2023/03/18 08:17:07;;;;;;;0.13;0.10;;;17.20;69.40;;;;;;5006698;28;20053;-80
2023/03/18 08:19:33;;;;;;;0.82;0.10;;;17.20;69.30;;;;;;5006027;28;20049;-79
2023/03/18 08:21:59;;;;;;;0.13;0.10;;;17.20;69.40;;;;;;5040942;28;20057;-80
2023/03/18 08:24:25;;;;;;;0.20;0.17;;;17.20;69.40;;;;;;5006982;28;20062;-79
2023/03/18 08:26:51;;;;;;;0.20;0.20;;;17.10;69.30;;;;;;5004952;28;20046;-79
2023/03/18 08:29:16;;;;;;;0.10;0.10;;;17.10;69.30;;;;;;5007418;28;20054;-80
2023/03/18 08:31:42;;;;;;;0.25;0.10;;;17.10;69.40;;;;;;5006259;28;20050;-79
2023/03/18 08:34:07;;;;;;;0.30;0.20;;;17.10;69.30;;;;;;5008423;28;20691;-80
2023/03/18 08:36:33;;;;;;;0.10;0.10;;;17.20;69.40;;;;;;5005942;28;20045;-80
2023/03/18 08:38:58;;;;;;;0.10;0.10;;;17.20;69.40;;;;;;5005645;28;20121;-80
2023/03/18 08:41:25;;;;;;;0.20;0.10;;;17.20;69.30;;;;;;5007107;28;20392;-79
2023/03/18 08:43:51;;;;;;;0.30;0.30;;;17.20;69.30;;;;;;5005997;28;20038;-79
2023/03/18 08:46:17;;;;;;;0.15;0.08;;;17.20;69.40;;;;;;5007299;28;20416;-80
2023/03/18 08:48:43;;;;;;;0.10;0.10;;;17.20;69.30;;;;;;5006283;28;20100;-80
2023/03/18 08:51:09;;;;;;;0.28;0.10;;;17.20;69.40;;;;;;5006108;28;20038;-80
2023/03/18 08:53:35;;;;;;;0.40;0.10;;;17.20;69.40;;;;;;5006660;28;20038;-79
2023/03/18 08:56:02;;;;;;;0.30;0.10;;;17.10;69.40;;;;;;5007370;28;20134;-79
2023/03/18 08:58:28;;;;;;;0.10;0.10;;;17.20;69.50;;;;;;5007355;28;20056;-80
2023/03/18 09:00:54;;;;;;;0.10;0.10;;;17.20;69.40;;;;;;5008583;28;20049;-80
2023/03/18 09:03:20;;;;;;;0.00;0.00;;;17.20;69.40;;;;;;5006185;28;20046;-80
2023/03/18 09:05:49;;;;;;;0.20;0.10;;;17.20;69.40;;;;;;5002675;28;20053;-79
2023/03/18 09:08:14;;;;;;;0.40;0.25;;;17.20;69.20;;;;;;5000142;28;20046;-80
2023/03/18 09:10:40;;;;;;;0.25;0.10;;;17.20;68.90;;;;;;5005395;28;20048;-80
2023/03/18 09:13:07;;;;;;;0.10;0.10;;;17.30;68.70;;;;;;5007846;28;20061;-80
2023/03/18 09:15:32;;;;;;;0.30;0.10;;;17.30;68.80;;;;;;5004670;28;20068;-78
2023/03/18 09:17:58;;;;;;;0.35;0.10;;;17.30;69.10;;;;;;5005768;28;20411;-79
2023/03/18 09:20:24;;;;;;;0.22;0.08;;;17.30;69.20;;;;;;5006471;28;20533;-79
2023/03/18 09:22:50;;;;;;;0.40;0.10;;;17.40;68.90;;;;;;5003985;28;20042;-79
2023/03/18 09:25:16;;;;;;;0.20;0.10;;;17.40;68.70;;;;;;5007144;28;20056;-80
2023/03/18 09:27:42;;;;;;;0.10;0.10;;;17.40;68.60;;;;;;5006768;28;20034;-79
2023/03/18 09:30:09;;;;;;;0.10;0.10;;;17.40;68.80;;;;;;5006004;28;20499;-79
2023/03/18 09:32:34;;;;;;;0.45;0.20;;;17.50;68.90;;;;;;5004319;28;20066;-78
2023/03/18 09:35:00;;;;;;;0.52;0.10;;;17.50;68.80;;;;;;5005255;28;20593;-79
2023/03/18 09:37:26;;;;;;;0.10;0.10;;;17.40;68.60;;;;;;5006205;28;20052;-79
2023/03/18 09:39:51;;;;;;;0.55;0.10;;;17.50;68.90;;;;;;5005827;28;20136;-79
2023/03/18 09:42:40;;;;;;;0.45;0.10;;;17.40;68.70;;;;;;5005597;28;20057;-79
2023/03/18 09:45:19;;;;;;;0.08;0.08;;;17.40;68.70;;;;;;5036800;28;20046;-79
2023/03/18 09:48:22;;;;;;;0.10;0.10;;;17.40;68.70;;;;;;4985797;28;20569;-79
2023/03/18 09:51:09;;;;;;;0.32;0.10;;;17.40;68.40;;;;;;5003369;28;20057;-79
2023/03/18 09:53:38;;;;;;;0.10;0.10;;;17.40;68.60;;;;;;5005265;28;20105;-79
2023/03/18 09:56:03;;;;;;;0.35;0.10;;;17.40;68.60;;;;;;5005806;28;20100;-80
2023/03/18 09:58:39;;;;;;;0.10;0.10;;;17.40;68.60;;;;;;5004129;28;20045;-79
2023/03/18 10:01:05;;;;;;;0.15;0.10;;;17.40;68.60;;;;;;5005063;28;20126;-79
2023/03/18 10:03:33;;;;;;;0.20;0.10;;;17.40;68.50;;;;;;5036591;28;20041;-79
2023/03/18 10:06:05;;;;;;;0.15;0.10;;;17.40;68.40;;;;;;5019912;28;20119;-79
2023/03/18 10:09:01;;;;;;;0.10;0.10;;;17.40;68.40;;;;;;5004982;28;20511;-79
2023/03/18 10:11:38;;;;;;;2.10;0.15;;;17.40;68.50;;;;;;5003689;28;20045;-79
2023/03/18 10:14:30;;;;;;;0.08;0.05;;;17.50;68.50;;;;;;5019489;28;20050;-79
2023/03/18 10:17:05;;;;;;;0.13;0.13;;;17.50;68.60;;;;;;5002923;28;20474;-80
2023/03/18 10:19:32;;;;;;;0.80;0.15;;;17.50;68.50;;;;;;5002144;28;20058;-79
2023/03/18 10:22:11;;;;;;;0.20;0.20;;;17.50;68.40;;;;;;5005834;28;20042;-79
2023/03/18 10:24:49;;;;;;;0.20;0.10;;;17.50;68.30;;;;;;5005702;28;20041;-78
2023/03/18 10:27:26;;;;;;;0.10;0.10;;;17.50;68.60;;;;;;5005559;28;20045;-79
2023/03/18 10:29:57;;;;;;;0.10;0.10;;;17.50;68.80;;;;;;5001433;28;20050;-80
2023/03/18 10:32:35;;;;;;;0.20;0.10;;;17.50;68.50;;;;;;5005869;28;20053;-79
2023/03/18 10:35:12;;;;;;;0.20;0.20;;;17.50;68.60;;;;;;5004426;28;20713;-80
2023/03/18 10:37:46;;;;;;;0.05;0.05;;;17.50;69.20;;;;;;5003711;28;20156;-79
2023/03/18 10:40:14;;;;;;;0.10;0.10;;;17.50;68.30;;;;;;5002382;28;20069;-79
2023/03/18 10:42:40;;;;;;;0.10;0.00;;;17.60;68.40;;;;;;5005380;28;20046;-79
2023/03/18 10:45:14;;;;;;;0.20;0.10;;;17.50;68.30;;;;;;5004325;28;20073;-80
2023/03/18 10:47:40;;;;;;;0.20;0.10;;;17.50;68.30;;;;;;4987337;28;20050;-79
2023/03/18 10:50:17;;;;;;;0.10;0.10;;;17.50;68.30;;;;;;5051092;28;20046;-80
2023/03/18 10:52:53;;;;;;;0.03;0.00;;;17.50;68.40;;;;;;5034170;28;20403;-79
2023/03/18 10:55:21;;;;;;;0.00;0.00;;;17.50;68.40;;;;;;5002413;28;20066;-79
2023/03/18 10:57:47;;;;;;;0.28;0.10;;;17.50;68.40;;;;;;4998577;28;20080;-79
2023/03/18 11:00:27;;;;;;;0.43;0.22;;;17.50;68.30;;;;;;5003429;28;20149;-81
2023/03/18 11:02:53;;;;;;;0.30;0.10;;;17.50;68.80;;;;;;5018727;28;20141;-79
2023/03/18 11:05:25;;;;;;;0.40;0.20;;;17.50;68.70;;;;;;4991269;28;20045;-78
2023/03/18 11:08:02;;;;;;;0.30;0.10;;;17.50;68.60;;;;;;5004827;28;20038;-78
2023/03/18 11:10:30;;;;;;;0.20;0.05;;;17.50;68.70;;;;;;5008578;28;20045;-79
2023/03/18 11:13:02;;;;;;;0.20;0.20;;;17.60;69.00;;;;;;5008103;28;20049;-80
2023/03/18 11:15:51;;;;;;;0.20;0.20;;;17.60;69.20;;;;;;5006920;28;20053;-79
2023/03/18 11:18:20;;;;;;;0.20;0.10;;;17.60;68.50;;;;;;4675521;28;10000491;-78
2023/03/18 11:20:48;;;;;;;0.00;0.00;;;17.70;69.10;;;;;;5050726;28;20585;-78
2023/03/18 11:23:47;;;;;;;0.52;0.15;;;17.70;69.10;;;;;;4985826;28;20165;-78
2023/03/18 11:26:23;;;;;;;0.20;0.20;;;17.70;70.20;;;;;;5003864;28;20400;-78
2023/03/18 11:28:55;;;;;;;0.30;0.20;;;17.70;71.60;;;;;;5000112;28;20042;-78
2023/03/18 11:31:21;;;;;;;0.50;0.22;;;17.70;69.90;;;;;;4989278;28;20050;-79
2023/03/18 11:33:46;;;;;;;0.20;0.20;;;17.60;70.70;;;;;;5003237;28;20045;-78
2023/03/18 11:36:15;;;;;;;0.40;0.30;;;17.60;69.80;;;;;;5020461;28;20109;-78
2023/03/18 11:38:42;;;;;;;0.65;0.40;;;17.70;70.10;;;;;;5017550;28;20046;-79
2023/03/18 11:41:32;;;;;;;0.30;0.30;;;17.70;69.20;;;;;;5004274;28;20048;-79
2023/03/18 11:44:05;;;;;;;0.38;0.30;;;17.70;69.00;;;;;;4983897;28;20045;-78
2023/03/18 11:46:37;;;;;;;0.28;0.28;;;17.60;69.00;;;;;;5004426;28;20030;-79
2023/03/18 11:49:03;;;;;;;1.20;0.45;;;17.60;68.90;;;;;;5004114;28;20050;-78
2023/03/18 11:51:40;;;;;;;0.47;0.38;;;17.60;68.90;;;;;;4987425;28;20811;-78
2023/03/18 11:54:22;;;;;;;0.30;0.20;;;17.70;69.00;;;;;;5001726;28;20041;-79
2023/03/18 11:57:04;;;;;;;1.02;0.17;;;17.70;68.80;;;;;;5041349;28;20045;-79
2023/03/18 11:59:43;;;;;;;0.38;0.20;;;17.70;68.90;;;;;;5005523;28;20038;-79
2023/03/18 12:02:24;;;;;;;0.35;0.22;;;17.70;69.10;;;;;;5005699;28;20049;-79
2023/03/18 12:04:59;;;;;;;0.20;0.20;;;17.70;69.70;;;;;;5006584;28;20057;-79
2023/03/18 12:07:46;;;;;;;0.40;0.30;;;17.70;68.90;;;;;;5007745;28;20076;-79
2023/03/18 12:10:23;;;;;;;0.22;0.22;;;17.70;68.90;;;;;;5019681;28;20538;-79
2023/03/18 12:13:02;;;;;;;0.10;0.10;;;17.70;68.70;;;;;;5004361;28;20057;-79
2023/03/18 12:15:46;;;;;;;0.30;0.30;;;17.70;68.70;;;;;;5006539;28;20470;-79
2023/03/18 12:18:32;;;;;;;0.20;0.20;;;17.70;68.70;;;;;;5007753;28;20057;-79
2023/03/18 12:21:35;;;;;;;0.60;0.15;;;17.70;68.50;;;;;;5021535;28;20042;-79
2023/03/18 12:24:34;;;;;;;0.22;0.10;;;17.70;68.60;;;;;;5006453;28;20581;-79
2023/03/18 12:27:38;;;;;;;1.00;0.30;;;17.70;68.40;;;;;;5002923;28;20030;-79
2023/03/18 12:30:08;;;;;;;0.15;0.15;;;17.70;68.50;;;;;;4994402;28;20054;-79
2023/03/18 12:32:37;;;;;;;0.25;0.13;;;17.70;68.40;;;;;;4984719;28;20057;-79
2023/03/18 12:35:21;;;;;;;0.30;0.20;;;17.70;68.40;;;;;;4983792;28;20531;-79
2023/03/18 12:38:05;;;;;;;0.10;0.10;;;17.70;68.30;;;;;;4983371;28;20124;-79
2023/03/18 12:40:36;;;;;;;0.20;0.20;;;17.70;68.30;;;;;;4985025;28;20118;-79
2023/03/18 12:43:11;;;;;;;0.70;0.30;;;17.70;68.30;;;;;;4999435;28;20077;-79
2023/03/18 12:45:39;;;;;;;0.40;0.30;;;17.80;68.30;;;;;;4983805;28;20050;-79
2023/03/18 12:48:11;;;;;;;0.20;0.10;;;17.80;68.20;;;;;;4984619;28;20475;-79
2023/03/18 12:50:42;;;;;;;0.32;0.20;;;17.70;68.20;;;;;;5017218;28;20085;-79
2023/03/18 12:53:17;;;;;;;0.22;0.20;;;17.70;69.00;;;;;;4984028;28;20159;-79
2023/03/18 12:55:45;;;;;;;0.20;0.20;;;17.80;68.30;;;;;;4999834;28;20035;-79